CCA351 ZGSZ-WIII
Flight info
| Callsign | CCA351 |
|---|---|
| Flight time | N/A |
| Altitude | FL400 |
| Route | TOMUD1 TOMUD R200 BIGRO G221 PCA W12 BMT W1 AC L644 TPN W38W AMBOY AMBO2H |
| Aircraft | B744/H-CDGHLRTWZ/B1D1 |
Departure
| Time | 2026-04-25 04:49 |
|---|---|
| Airport | Shenzhen Bao'an International Airport (ZGSZ) |
Arrival
| Time | N/A |
|---|---|
| Airport | Soekarno-Hatta International Airport (WIII) |
| Time | Latitude | Longitude | Altitude | Speed | Heading |
|---|---|---|---|---|---|
| 2026-04-25 04:49 | 22.77054 | 113.66627 | 5315 ft | 228 kts | 300° |
| 2026-04-25 04:49 | 22.77394 | 113.64939 | 5552 ft | 237 kts | 269° |
| 2026-04-25 04:49 | 22.76904 | 113.63230 | 5920 ft | 244 kts | 245° |
| 2026-04-25 04:50 | 22.75989 | 113.61668 | 6375 ft | 248 kts | 239° |
| 2026-04-25 04:50 | 22.74995 | 113.60122 | 6839 ft | 255 kts | 229° |
| 2026-04-25 04:50 | 22.73488 | 113.59081 | 7370 ft | 264 kts | 201° |
| 2026-04-25 04:50 | 22.71624 | 113.58869 | 7825 ft | 282 kts | 176° |
| 2026-04-25 04:51 | 22.69695 | 113.59405 | 8397 ft | 292 kts | 163° |
| 2026-04-25 04:51 | 22.67787 | 113.60252 | 8986 ft | 301 kts | 158° |
| 2026-04-25 04:51 | 22.65866 | 113.61208 | 9605 ft | 308 kts | 158° |
| 2026-04-25 04:51 | 22.63898 | 113.62156 | 10272 ft | 313 kts | 159° |
| 2026-04-25 04:52 | 22.61845 | 113.63110 | 10592 ft | 333 kts | 160° |
| 2026-04-25 04:52 | 22.59609 | 113.64058 | 10776 ft | 358 kts | 161° |
| 2026-04-25 04:52 | 22.57196 | 113.65026 | 10959 ft | 384 kts | 161° |
| 2026-04-25 04:52 | 22.54610 | 113.65902 | 11466 ft | 395 kts | 171° |
| 2026-04-25 04:53 | 22.51865 | 113.65952 | 12196 ft | 398 kts | 190° |
| 2026-04-25 04:53 | 22.49974 | 113.65421 | 12764 ft | 399 kts | 201° |
| 2026-04-25 04:53 | 22.47586 | 113.64260 | 13553 ft | 401 kts | 209° |
| 2026-04-25 04:53 | 22.45173 | 113.62713 | 14317 ft | 407 kts | 214° |
| 2026-04-25 04:54 | 22.42813 | 113.61002 | 15125 ft | 412 kts | 216° |
| 2026-04-25 04:54 | 22.40434 | 113.59253 | 15893 ft | 417 kts | 216° |
| 2026-04-25 04:54 | 22.37990 | 113.57523 | 16649 ft | 423 kts | 215° |
| 2026-04-25 04:54 | 22.35504 | 113.55805 | 17382 ft | 429 kts | 215° |
| 2026-04-25 04:55 | 22.34186 | 113.54899 | 17757 ft | 431 kts | 215° |
| 2026-04-25 04:55 | 22.31830 | 113.53283 | 18408 ft | 436 kts | 215° |
| 2026-04-25 04:55 | 22.29258 | 113.51521 | 19097 ft | 442 kts | 215° |
| 2026-04-25 04:55 | 22.27169 | 113.50092 | 19657 ft | 445 kts | 215° |
| 2026-04-25 04:56 | 22.24597 | 113.48225 | 20358 ft | 446 kts | 221° |
| 2026-04-25 04:56 | 22.22514 | 113.45786 | 21021 ft | 443 kts | 237° |
| 2026-04-25 04:56 | 22.20949 | 113.42925 | 21658 ft | 445 kts | 244° |
| 2026-04-25 04:56 | 22.19598 | 113.39918 | 22282 ft | 448 kts | 248° |
| 2026-04-25 04:57 | 22.18428 | 113.36799 | 22897 ft | 451 kts | 251° |
| 2026-04-25 04:57 | 22.17321 | 113.33623 | 23481 ft | 455 kts | 251° |
| 2026-04-25 04:57 | 22.16164 | 113.30445 | 24052 ft | 459 kts | 250° |
| 2026-04-25 04:57 | 22.14975 | 113.27243 | 24617 ft | 462 kts | 250° |
| 2026-04-25 04:58 | 22.13777 | 113.24017 | 25197 ft | 465 kts | 250° |
| 2026-04-25 04:58 | 22.12519 | 113.20809 | 25835 ft | 466 kts | 248° |
| 2026-04-25 04:58 | 22.11170 | 113.17633 | 26438 ft | 467 kts | 247° |
| 2026-04-25 04:58 | 22.09818 | 113.14454 | 27012 ft | 468 kts | 248° |
| 2026-04-25 04:59 | 22.08475 | 113.11253 | 27550 ft | 469 kts | 248° |
| 2026-04-25 04:59 | 22.07138 | 113.08054 | 28042 ft | 471 kts | 248° |
| 2026-04-25 04:59 | 22.05795 | 113.04836 | 28505 ft | 472 kts | 248° |
| 2026-04-25 04:59 | 22.04445 | 113.01603 | 28929 ft | 474 kts | 248° |
| 2026-04-25 05:00 | 22.03108 | 112.98361 | 29347 ft | 475 kts | 249° |
| 2026-04-25 05:00 | 22.02479 | 112.96747 | 29553 ft | 475 kts | 249° |
| 2026-04-25 05:00 | 22.01225 | 112.93463 | 29907 ft | 477 kts | 249° |
| 2026-04-25 05:00 | 21.99954 | 112.90181 | 30438 ft | 473 kts | 249° |
| 2026-04-25 05:01 | 21.98694 | 112.86949 | 31202 ft | 465 kts | 249° |
| 2026-04-25 05:01 | 21.97453 | 112.83772 | 31846 ft | 459 kts | 249° |
| 2026-04-25 05:01 | 21.96217 | 112.80617 | 32294 ft | 458 kts | 248° |
| 2026-04-25 05:01 | 21.94959 | 112.77482 | 32764 ft | 455 kts | 248° |
| 2026-04-25 05:02 | 21.93702 | 112.74369 | 33177 ft | 453 kts | 248° |
| 2026-04-25 05:02 | 21.92444 | 112.71262 | 33528 ft | 453 kts | 248° |
| 2026-04-25 05:02 | 21.91194 | 112.68171 | 33928 ft | 450 kts | 248° |
| 2026-04-25 05:02 | 21.89951 | 112.65099 | 34365 ft | 447 kts | 248° |
| 2026-04-25 05:03 | 21.88714 | 112.62043 | 34763 ft | 445 kts | 248° |
| 2026-04-25 05:03 | 21.87483 | 112.59002 | 35144 ft | 442 kts | 248° |
| 2026-04-25 05:03 | 21.86260 | 112.55983 | 35479 ft | 441 kts | 248° |
| 2026-04-25 05:03 | 21.85046 | 112.52966 | 35785 ft | 439 kts | 248° |
| 2026-04-25 05:04 | 21.83853 | 112.49957 | 36093 ft | 437 kts | 248° |
| 2026-04-25 05:04 | 21.82665 | 112.46964 | 36422 ft | 435 kts | 248° |
| 2026-04-25 05:04 | 21.81480 | 112.43982 | 36678 ft | 434 kts | 248° |
| 2026-04-25 05:04 | 21.80297 | 112.41009 | 36963 ft | 431 kts | 248° |
| 2026-04-25 05:05 | 21.79118 | 112.38052 | 37209 ft | 430 kts | 248° |
| 2026-04-25 05:05 | 21.77945 | 112.35106 | 37423 ft | 429 kts | 248° |
| 2026-04-25 05:05 | 21.76773 | 112.32168 | 37656 ft | 427 kts | 248° |
| 2026-04-25 05:05 | 21.75608 | 112.29248 | 37893 ft | 425 kts | 248° |
| 2026-04-25 05:06 | 21.74449 | 112.26345 | 38099 ft | 423 kts | 248° |
| 2026-04-25 05:06 | 21.73292 | 112.23447 | 38315 ft | 421 kts | 248° |
| 2026-04-25 05:06 | 21.72144 | 112.20566 | 38504 ft | 419 kts | 248° |
| 2026-04-25 05:06 | 21.71010 | 112.17692 | 38718 ft | 417 kts | 248° |
| 2026-04-25 05:07 | 21.69880 | 112.14839 | 38922 ft | 415 kts | 248° |
| 2026-04-25 05:07 | 21.68755 | 112.11984 | 39113 ft | 414 kts | 248° |
| 2026-04-25 05:07 | 21.67625 | 112.09138 | 39283 ft | 414 kts | 248° |
| 2026-04-25 05:07 | 21.66493 | 112.06305 | 39419 ft | 413 kts | 248° |
| 2026-04-25 05:08 | 21.65360 | 112.03476 | 39600 ft | 412 kts | 248° |
| 2026-04-25 05:08 | 21.64230 | 112.00661 | 39760 ft | 411 kts | 248° |
| 2026-04-25 05:08 | 21.63101 | 111.97848 | 39912 ft | 410 kts | 248° |
| 2026-04-25 05:08 | 21.61975 | 111.95046 | 40029 ft | 410 kts | 248° |
| 2026-04-25 05:09 | 21.60842 | 111.92229 | 40057 ft | 411 kts | 248° |
| 2026-04-25 05:09 | 21.58578 | 111.86596 | 40057 ft | 412 kts | 248° |
| 2026-04-25 05:10 | 21.55811 | 111.81228 | 40034 ft | 415 kts | 237° |